Time;durP1;ratioP1;P1;durP2;ratioP2;P2;SDS_P1;SDS_P2;PMS_P1;PMS_P2;Temp;Humidity;BMP_temperature;BMP_pressure;BME280_temperature;BME280_humidity;BME280_pressure;Samples;Min_cycle;Max_cycle;Signal;HPM_P1;HPM_P2
2021/10/19 00:01:48;;;;;;;29.63;15.20;;;;;;;10.63;100.00;101565.64;5040047;58;1143314;-79
2021/10/19 00:06:53;;;;;;;46.10;18.13;;;;;;;10.64;100.00;101563.84;5121940;56;1143275;-82
2021/10/19 00:11:59;;;;;;;84.93;30.97;;;;;;;10.62;100.00;101566.58;5043633;58;1143207;-79
2021/10/19 00:17:05;;;;;;;43.53;18.57;;;;;;;10.66;100.00;101565.93;5034826;58;1143237;-82
2021/10/19 00:22:11;;;;;;;34.73;15.67;;;;;;;10.62;100.00;101558.64;5035782;57;1143297;-81
2021/10/19 00:27:16;;;;;;;26.13;12.37;;;;;;;10.56;100.00;101551.92;5060469;57;1143159;-79
2021/10/19 00:32:23;;;;;;;34.30;15.37;;;;;;;10.52;100.00;101541.17;5202174;56;1143142;-84
2021/10/19 00:37:29;;;;;;;33.43;16.77;;;;;;;10.51;100.00;101544.77;5061172;57;1143449;-80
2021/10/19 00:42:37;;;;;;;31.60;15.90;;;;;;;10.45;100.00;101541.63;5205891;56;1143193;-81
2021/10/19 00:47:49;;;;;;;18.10;9.57;;;;;;;10.37;100.00;101530.67;5075113;57;1143189;-82
2021/10/19 00:52:57;;;;;;;13.40;8.90;;;;;;;10.26;100.00;101519.41;5202260;56;1141202;-79
2021/10/19 00:58:06;;;;;;;18.07;9.93;;;;;;;10.19;100.00;101505.72;5086313;57;1140680;-85
2021/10/19 01:03:12;;;;;;;15.37;9.23;;;;;;;10.11;100.00;101501.31;5060522;58;1139383;-78
2021/10/19 01:08:18;;;;;;;12.87;7.37;;;;;;;10.10;100.00;101498.77;5083177;57;1139073;-82
2021/10/19 01:13:24;;;;;;;20.77;9.13;;;;;;;10.11;100.00;101487.25;5205516;56;21597;-86
2021/10/19 01:18:30;;;;;;;17.67;9.83;;;;;;;10.16;100.00;101487.83;5080183;57;1138975;-77
2021/10/19 01:23:37;;;;;;;18.17;8.60;;;;;;;10.19;100.00;101491.18;5165995;56;1143185;-80
2021/10/19 01:28:44;;;;;;;18.77;9.20;;;;;;;10.19;100.00;101496.47;5084397;57;1143175;-81
2021/10/19 01:33:50;;;;;;;17.20;9.27;;;;;;;10.22;100.00;101494.12;5184636;55;1143200;-79
2021/10/19 01:38:56;;;;;;;18.93;10.53;;;;;;;10.22;100.00;101487.50;5092787;57;1143225;-82
2021/10/19 01:44:02;;;;;;;28.47;10.50;;;;;;;10.15;100.00;101476.88;5183839;56;1145532;-84
2021/10/19 01:49:08;;;;;;;18.23;9.77;;;;;;;10.12;100.00;101471.30;5058989;57;1145416;-81
2021/10/19 01:54:14;;;;;;;16.23;9.40;;;;;;;10.09;100.00;101477.23;5209866;56;1143270;-83
2021/10/19 01:59:20;;;;;;;23.33;12.33;;;;;;;10.09;100.00;101480.73;5197313;56;1143406;-78
2021/10/19 02:04:27;;;;;;;22.30;13.13;;;;;;;10.10;100.00;101477.61;5048763;57;1145413;-81
2021/10/19 02:09:32;;;;;;;23.03;12.10;;;;;;;10.07;100.00;101456.21;5059659;57;1145590;-81
2021/10/19 02:14:39;;;;;;;32.97;13.93;;;;;;;10.07;100.00;101457.53;5087641;57;1145768;-79
2021/10/19 02:19:44;;;;;;;49.10;18.07;;;;;;;10.05;100.00;101462.52;5198782;56;1145344;-80
2021/10/19 02:24:50;;;;;;;28.03;14.17;;;;;;;9.92;99.24;101466.38;5064456;57;1145551;-79
2021/10/19 02:29:56;;;;;;;27.87;13.90;;;;;;;9.81;99.63;101462.19;5058820;57;1141514;-78
2021/10/19 02:35:02;;;;;;;29.67;12.67;;;;;;;9.76;99.43;101473.05;5072612;58;1141252;-77
2021/10/19 02:40:10;;;;;;;25.00;13.47;;;;;;;9.78;100.00;101472.45;5063264;57;1141333;-78
2021/10/19 02:45:17;;;;;;;38.87;17.03;;;;;;;9.82;100.00;101473.98;5190254;56;1143338;-82
2021/10/19 02:50:23;;;;;;;42.97;16.73;;;;;;;9.82;99.99;101477.95;5080644;57;1143328;-82
2021/10/19 02:55:28;;;;;;;34.60;14.43;;;;;;;9.73;99.25;101485.58;5057555;57;1141390;-79
2021/10/19 03:00:34;;;;;;;53.43;20.70;;;;;;;9.59;98.85;101480.25;5195829;56;1141278;-82
2021/10/19 03:05:40;;;;;;;35.97;16.87;;;;;;;9.51;98.68;101484.64;5050066;57;1141412;-81
2021/10/19 03:10:46;;;;;;;37.83;17.07;;;;;;;9.44;98.96;101480.67;5197109;56;1141064;-81
2021/10/19 03:15:53;;;;;;;56.23;23.47;;;;;;;9.42;99.01;101483.39;5063083;57;1141078;-79
2021/10/19 03:20:59;;;;;;;47.90;20.00;;;;;;;9.36;98.97;101478.45;5082976;58;1141181;-81
2021/10/19 03:26:05;;;;;;;49.98;17.35;;;;;;;9.22;97.86;101474.90;5209886;56;1141121;-80
2021/10/19 03:31:11;;;;;;;37.73;17.50;;;;;;;9.16;98.29;101474.80;5210117;56;1141218;-76
2021/10/19 03:36:16;;;;;;;43.60;17.80;;;;;;;9.16;98.73;101466.41;5103666;57;1141539;-78
2021/10/19 03:41:22;;;;;;;59.77;22.37;;;;;;;9.15;98.75;101468.66;5052979;57;1141468;-80
2021/10/19 03:46:27;;;;;;;57.90;22.90;;;;;;;9.11;98.87;101464.48;5073142;57;1141447;-81
2021/10/19 03:51:33;;;;;;;60.03;24.77;;;;;;;9.09;98.54;101462.87;5180254;56;1141132;-80
2021/10/19 03:56:39;;;;;;;56.37;24.90;;;;;;;9.07;98.79;101466.91;5036945;57;1141330;-81
2021/10/19 04:01:45;;;;;;;69.47;24.23;;;;;;;9.07;98.62;101456.82;5044083;57;1141167;-79
2021/10/19 04:06:51;;;;;;;29.90;16.80;;;;;;;9.03;98.70;101452.64;5139190;56;1141272;-79
2021/10/19 04:11:58;;;;;;;30.77;14.47;;;;;;;9.00;98.72;101448.42;5051815;57;1141116;-76
2021/10/19 04:17:04;;;;;;;23.80;13.20;;;;;;;8.99;98.52;101452.45;5190490;56;1141298;-80
2021/10/19 04:22:11;;;;;;;19.80;12.50;;;;;;;8.95;98.43;101449.60;5202756;56;1141140;-78
2021/10/19 04:27:17;;;;;;;26.10;13.67;;;;;;;8.92;98.45;101444.02;5190294;55;1141134;-79
2021/10/19 04:32:23;;;;;;;22.60;13.07;;;;;;;8.90;98.55;101450.31;5075718;57;1140992;-82
2021/10/19 04:37:30;;;;;;;31.53;19.77;;;;;;;8.87;98.90;101452.65;5056332;58;1139242;-80
2021/10/19 04:42:37;;;;;;;53.80;28.80;;;;;;;8.91;99.07;101438.83;5086779;57;1139220;-80
2021/10/19 04:47:45;;;;;;;27.27;18.50;;;;;;;8.94;99.13;101424.16;5062902;57;1139288;-80
2021/10/19 04:52:51;;;;;;;75.78;37.05;;;;;;;8.98;99.13;101428.33;5120760;56;1139174;-80
2021/10/19 04:57:57;;;;;;;28.30;15.57;;;;;;;9.00;99.37;101427.78;5228339;56;1138974;-78
2021/10/19 05:03:04;;;;;;;21.80;13.60;;;;;;;8.99;99.24;101412.88;5091139;56;1138977;-84
2021/10/19 05:08:09;;;;;;;29.57;16.03;;;;;;;9.00;99.09;101424.67;5104363;57;1139119;-82
2021/10/19 05:13:15;;;;;;;24.23;15.20;;;;;;;8.98;98.95;101411.18;5101282;56;1139262;-81
2021/10/19 05:18:21;;;;;;;27.13;15.47;;;;;;;8.94;98.79;101405.69;5107124;57;1139078;-79
2021/10/19 05:23:27;;;;;;;22.30;14.97;;;;;;;8.91;98.86;101411.98;5102622;56;1139131;-81
2021/10/19 05:28:32;;;;;;;24.23;13.47;;;;;;;8.90;99.23;101415.55;5063408;57;1139095;-80
2021/10/19 05:33:38;;;;;;;27.10;15.13;;;;;;;8.90;99.03;101414.70;5088059;57;1139066;-78
2021/10/19 05:38:44;;;;;;;24.93;13.33;;;;;;;8.86;98.93;101404.78;5045495;57;1139128;-77
2021/10/19 05:43:50;;;;;;;31.70;16.57;;;;;;;8.90;99.28;101400.19;5073082;57;1139336;-79
2021/10/19 05:48:57;;;;;;;31.23;16.47;;;;;;;8.93;99.44;101396.92;5061202;57;1139002;-86
2021/10/19 05:54:02;;;;;;;25.60;15.63;;;;;;;8.92;99.19;101417.64;5102426;56;1138432;-79
2021/10/19 05:59:09;;;;;;;33.70;16.80;;;;;;;8.87;99.18;101432.87;5241049;55;1139076;-81
2021/10/19 06:04:15;;;;;;;28.57;14.90;;;;;;;8.94;99.78;101436.87;5100918;56;1137179;-78
2021/10/19 06:09:21;;;;;;;36.80;18.77;;;;;;;9.03;100.00;101444.73;4979509;57;1137155;-80
2021/10/19 06:14:27;;;;;;;32.40;16.83;;;;;;;9.06;100.00;101453.33;5138768;56;1143266;-75
2021/10/19 06:19:33;;;;;;;28.45;16.00;;;;;;;9.14;100.00;101456.87;5209645;55;1143269;-79
2021/10/19 06:24:39;;;;;;;63.07;34.57;;;;;;;9.20;100.00;101459.14;5214516;55;1143228;-81
2021/10/19 06:29:45;;;;;;;34.63;18.80;;;;;;;9.19;99.37;101449.52;5113918;57;1143247;-77
2021/10/19 06:34:51;;;;;;;75.40;42.20;;;;;;;9.18;99.77;101446.03;4997948;57;1141192;-79
2021/10/19 06:39:57;;;;;;;45.90;23.33;;;;;;;9.15;99.69;101442.27;5033636;57;1141182;-78
2021/10/19 06:45:04;;;;;;;40.00;17.80;;;;;;;9.18;99.83;101452.62;5015071;58;1141201;-82
2021/10/19 06:50:11;;;;;;;28.63;14.97;;;;;;;9.20;99.65;101439.81;5115708;57;1141214;-85
2021/10/19 06:55:19;;;;;;;28.97;13.57;;;;;;;9.21;99.66;101433.13;5139271;56;1141061;-82
2021/10/19 07:00:24;;;;;;;28.67;16.13;;;;;;;9.23;99.81;101433.91;5217936;56;1141274;-82
2021/10/19 07:05:30;;;;;;;29.17;16.50;;;;;;;9.23;100.00;101418.53;5219239;56;1141148;-78
2021/10/19 07:10:37;;;;;;;29.83;15.90;;;;;;;9.29;100.00;101416.87;5213275;56;1143236;-82
2021/10/19 07:15:42;;;;;;;25.27;14.17;;;;;;;9.31;99.93;101403.97;5202333;56;1143413;-78
2021/10/19 07:20:49;;;;;;;22.67;13.10;;;;;;;9.38;99.91;101419.81;5072584;57;1141189;-78
2021/10/19 07:25:55;;;;;;;23.70;11.20;;;;;;;9.38;99.91;101419.81;5110257;57;1141122;-78
2021/10/19 07:31:00;;;;;;;17.33;11.93;;;;;;;9.43;99.96;101418.23;4971035;57;1141149;-78
2021/10/19 07:36:06;;;;;;;23.13;12.97;;;;;;;9.46;100.00;101407.03;4948725;58;1141140;-79
2021/10/19 07:41:12;;;;;;;21.23;13.23;;;;;;;9.56;100.00;101390.63;4946979;58;1142679;-80
2021/10/19 07:46:18;;;;;;;21.47;12.13;;;;;;;9.67;100.00;101390.83;4985586;58;1143444;-81
2021/10/19 07:51:24;;;;;;;18.07;11.47;;;;;;;9.83;100.00;101381.05;5081172;56;1143202;-83
2021/10/19 07:56:30;;;;;;;20.20;11.47;;;;;;;9.95;100.00;101371.05;5189560;55;1143226;-84
2021/10/19 08:01:36;;;;;;;22.27;11.47;;;;;;;10.05;99.93;101383.23;5092430;57;1143316;-81
2021/10/19 08:06:42;;;;;;;13.40;8.40;;;;;;;10.12;98.93;101369.53;4990741;58;1143509;-81
2021/10/19 08:11:48;;;;;;;18.32;10.68;;;;;;;10.20;98.60;101372.59;5079636;56;1141215;-80
2021/10/19 08:16:54;;;;;;;32.30;14.23;;;;;;;10.26;97.68;101366.53;5054233;57;1143260;-80
2021/10/19 08:22:00;;;;;;;35.90;15.95;;;;;;;10.32;97.59;101373.61;5214229;55;1143229;-80
2021/10/19 08:27:06;;;;;;;23.07;10.73;;;;;;;10.40;97.47;101371.32;5041163;57;1143307;-84
2021/10/19 08:32:12;;;;;;;31.07;20.50;;;;;;;10.46;96.60;101378.03;5008715;57;1143458;-81
2021/10/19 08:37:17;;;;;;;30.43;16.17;;;;;;;10.53;96.61;101372.74;5072812;57;1143247;-81
2021/10/19 08:42:23;;;;;;;34.17;16.17;;;;;;;10.62;96.26;101372.61;5146730;56;1143528;-80
2021/10/19 08:47:28;;;;;;;32.13;15.23;;;;;;;10.75;96.18;101365.11;5278326;55;1143686;-80
2021/10/19 08:52:34;;;;;;;31.63;16.17;;;;;;;10.86;95.44;101365.25;5301601;55;1143250;-80
2021/10/19 08:57:40;;;;;;;30.07;14.03;;;;;;;10.96;94.54;101363.34;5126160;56;1143267;-82
2021/10/19 09:02:48;;;;;;;26.37;14.57;;;;;;;11.04;93.69;101357.05;5067669;57;1143441;-79
2021/10/19 09:07:59;;;;;;;15.33;10.57;;;;;;;11.14;92.29;101343.13;5086835;56;1143206;-80
2021/10/19 09:13:11;;;;;;;15.90;9.23;;;;;;;11.28;93.44;101336.42;5054056;57;1143286;-81
2021/10/19 09:18:20;;;;;;;17.73;9.47;;;;;;;11.42;91.07;101331.98;5109905;56;1141158;-79
2021/10/19 09:23:28;;;;;;;17.93;10.03;;;;;;;11.55;89.34;101319.59;5289975;55;1139018;-80
2021/10/19 09:28:40;;;;;;;12.10;7.57;;;;;;;11.67;90.14;101311.27;5232083;55;1142036;-79
2021/10/19 09:33:46;;;;;;;16.70;9.47;;;;;;;11.78;86.76;101310.91;5085096;57;1139145;-80
2021/10/19 09:38:51;;;;;;;15.07;8.53;;;;;;;11.86;87.38;101325.82;5016304;57;1139178;-79
2021/10/19 09:43:57;;;;;;;12.60;7.40;;;;;;;12.03;85.25;101324.64;5048240;57;1139549;-79
2021/10/19 09:49:05;;;;;;;15.57;8.87;;;;;;;12.16;86.36;101324.61;5150619;56;1139217;-79
2021/10/19 09:54:13;;;;;;;15.80;8.27;;;;;;;12.25;85.10;101335.39;5090820;57;1139376;-79
2021/10/19 09:59:19;;;;;;;15.70;8.90;;;;;;;12.31;84.01;101337.62;5039533;58;1140074;-80
2021/10/19 10:04:26;;;;;;;9.67;7.10;;;;;;;12.36;84.74;101332.47;5124298;56;1139434;-80
2021/10/19 10:09:33;;;;;;;15.27;9.27;;;;;;;12.44;84.63;101319.00;5003595;58;1137002;-79
2021/10/19 10:14:47;;;;;;;16.63;8.93;;;;;;;12.50;85.76;101315.92;4995190;57;1140218;-79
2021/10/19 10:19:53;;;;;;;19.23;10.17;;;;;;;12.60;86.13;101316.08;5191975;56;1139091;-79
2021/10/19 10:25:08;;;;;;;20.93;9.00;;;;;;;12.70;85.69;101295.86;5071808;57;1141138;-79
2021/10/19 10:30:25;;;;;;;14.53;8.47;;;;;;;12.76;85.95;101275.50;5201723;56;1137184;-79
2021/10/19 10:35:32;;;;;;;16.83;9.13;;;;;;;12.84;86.34;101278.42;5084225;57;1141147;-79
2021/10/19 10:40:44;;;;;;;13.50;7.95;;;;;;;13.02;86.08;101273.05;5218692;56;1141084;-79
2021/10/19 10:46:12;;;;;;;13.97;7.03;;;;;;;13.27;85.47;101284.03;5084804;57;1141158;-79
2021/10/19 10:51:38;;;;;;;18.97;7.13;;;;;;;13.51;81.84;101269.80;5058307;57;1141189;-79
2021/10/19 10:56:49;;;;;;;13.43;7.40;;;;;;;13.69;80.77;101253.27;5070221;57;1141272;-79
2021/10/19 11:02:10;;;;;;;11.07;7.30;;;;;;;13.79;79.72;101240.56;5072726;57;1141375;-79
2021/10/19 11:07:29;;;;;;;13.23;6.60;;;;;;;13.83;76.59;101238.88;5219560;56;1141089;-79
2021/10/19 11:12:35;;;;;;;14.47;7.57;;;;;;;14.03;74.38;101239.46;5216153;56;1142061;-79
2021/10/19 11:17:49;;;;;;;8.30;6.50;;;;;;;14.19;74.05;101239.55;5099733;57;1141253;-79
2021/10/19 11:22:55;;;;;;;11.03;7.20;;;;;;;14.30;71.76;101240.36;5067855;57;1139035;-79
2021/10/19 11:28:01;;;;;;;19.77;9.87;;;;;;;14.28;72.66;101231.66;5032577;57;1141944;-79
2021/10/19 11:33:10;;;;;;;12.37;8.40;;;;;;;14.30;73.95;101223.06;4994759;58;1141148;-79
2021/10/19 11:38:16;;;;;;;12.27;7.30;;;;;;;14.41;73.41;101205.75;4981959;58;1141336;-79
2021/10/19 11:43:21;;;;;;;22.17;12.47;;;;;;;14.58;74.91;101184.88;5115730;56;1141039;-79
2021/10/19 11:48:28;;;;;;;111.97;60.07;;;;;;;14.71;72.87;101187.70;5040957;57;1143279;-79
2021/10/19 11:53:35;;;;;;;10.77;7.07;;;;;;;14.72;73.37;101181.89;5064493;57;1145328;-79
2021/10/19 11:58:55;;;;;;;62.77;35.10;;;;;;;14.76;71.64;101162.87;5150656;56;1141126;-79
2021/10/19 12:04:04;;;;;;;10.57;7.40;;;;;;;14.82;74.52;101159.34;5082158;57;1141124;-79
2021/10/19 12:09:19;;;;;;;9.17;5.80;;;;;;;14.89;73.71;101170.66;5037660;57;1139107;-79
2021/10/19 12:14:42;;;;;;;13.50;6.20;;;;;;;15.03;71.98;101155.67;5074704;57;1136934;-80
2021/10/19 12:19:55;;;;;;;12.77;7.37;;;;;;;15.12;72.40;101142.06;5053533;57;1139035;-79
2021/10/19 12:25:04;;;;;;;17.48;5.30;;;;;;;15.16;72.00;101137.28;5151644;56;1139674;-79
2021/10/19 12:30:18;;;;;;;9.93;6.63;;;;;;;15.22;72.90;101130.95;5146109;56;1138957;-80
2021/10/19 12:35:28;;;;;;;8.23;5.70;;;;;;;15.33;73.54;101122.84;5101918;57;1136990;-79
2021/10/19 12:40:45;;;;;;;8.30;5.37;;;;;;;15.45;73.32;101124.91;5061894;57;1134940;-79
2021/10/19 12:45:51;;;;;;;9.17;6.30;;;;;;;15.63;71.79;101097.98;5199137;56;1139163;-80
2021/10/19 12:50:57;;;;;;;8.23;5.73;;;;;;;15.97;71.48;101086.94;5049459;56;1139082;-80
2021/10/19 12:56:03;;;;;;;13.47;6.67;;;;;;;16.26;69.99;101077.59;5128257;55;1138985;-79
2021/10/19 13:01:10;;;;;;;8.97;5.10;;;;;;;16.36;70.42;101087.75;5094787;57;1141688;-79
2021/10/19 13:06:16;;;;;;;9.17;4.93;;;;;;;16.31;68.58;101089.54;5059657;57;1139604;-78
2021/10/19 13:11:22;;;;;;;6.03;4.33;;;;;;;16.18;66.54;101094.33;5082666;57;1139085;-78
2021/10/19 13:16:28;;;;;;;7.83;4.87;;;;;;;16.05;68.68;101085.23;5188809;56;1139044;-79
2021/10/19 13:21:34;;;;;;;13.37;5.27;;;;;;;15.95;68.22;101083.08;5080762;57;1140109;-78
2021/10/19 13:26:41;;;;;;;5.97;4.70;;;;;;;15.83;66.84;101091.70;5011890;57;1141164;-78
2021/10/19 13:31:47;;;;;;;11.80;4.93;;;;;;;15.70;67.71;101087.14;5202080;56;1139143;-79
2021/10/19 13:36:53;;;;;;;7.93;5.17;;;;;;;15.63;69.31;101087.31;5096406;57;1141458;-78
2021/10/19 13:41:58;;;;;;;7.77;5.67;;;;;;;15.57;67.42;101073.22;5219569;56;1139001;-78
2021/10/19 13:47:04;;;;;;;9.93;5.50;;;;;;;15.51;69.29;101051.06;5059849;57;1139078;-77
2021/10/19 13:52:10;;;;;;;9.20;3.80;;;;;;;15.46;70.54;101054.13;5247961;55;1139182;-79
2021/10/19 13:57:16;;;;;;;9.23;6.03;;;;;;;15.43;70.20;101056.23;5073015;56;1139402;-79
2021/10/19 14:02:21;;;;;;;10.03;5.83;;;;;;;15.33;70.76;101046.88;5049700;57;1139319;-79
2021/10/19 14:07:28;;;;;;;56.87;25.63;;;;;;;15.33;71.11;101054.03;5040118;57;1141480;-77
2021/10/19 14:12:34;;;;;;;226.43;103.90;;;;;;;15.26;71.06;101044.43;4974502;58;1143612;-79
2021/10/19 14:17:40;;;;;;;95.13;44.27;;;;;;;15.22;71.77;101037.68;4990729;58;1147573;-78
2021/10/19 14:22:46;;;;;;;94.23;44.90;;;;;;;15.20;72.01;101037.45;4955476;58;1143414;-78
2021/10/19 14:27:52;;;;;;;58.35;30.60;;;;;;;15.16;71.11;101026.70;5049422;57;1143529;-78
2021/10/19 14:32:57;;;;;;;39.13;22.97;;;;;;;15.15;72.57;101023.20;5064511;57;1143286;-78
2021/10/19 14:38:03;;;;;;;20.97;14.23;;;;;;;15.12;72.63;101018.17;5063980;57;1143164;-78
2021/10/19 14:43:10;;;;;;;25.53;12.90;;;;;;;15.09;72.96;101017.95;5071600;57;1143636;-77
2021/10/19 14:48:16;;;;;;;15.33;10.27;;;;;;;15.08;73.17;101004.76;5062818;57;1143421;-78
2021/10/19 14:53:22;;;;;;;10.10;5.97;;;;;;;15.04;72.82;101005.52;5087691;57;1143372;-78
2021/10/19 14:58:32;;;;;;;16.57;10.00;;;;;;;15.02;73.17;101000.80;5025139;57;1141415;-78
2021/10/19 15:03:37;;;;;;;9.93;7.00;;;;;;;14.98;72.88;101003.37;5086039;57;1143256;-78
2021/10/19 15:08:43;;;;;;;11.40;7.93;;;;;;;14.95;73.21;100999.68;5033147;57;1139143;-79
2021/10/19 15:13:50;;;;;;;12.20;6.67;;;;;;;14.93;72.93;100993.64;4997227;57;1141698;-78
2021/10/19 15:18:55;;;;;;;11.00;6.47;;;;;;;14.89;73.78;100984.72;5061343;57;1141155;-78
2021/10/19 15:24:01;;;;;;;11.90;7.20;;;;;;;14.90;73.83;100978.41;5068225;57;1141302;-78
2021/10/19 15:29:06;;;;;;;37.97;23.67;;;;;;;14.89;74.15;100972.73;5046701;57;1141159;-78
2021/10/19 15:34:12;;;;;;;31.13;18.37;;;;;;;14.84;74.41;100967.80;5063637;57;1143110;-78
2021/10/19 15:39:18;;;;;;;30.57;15.37;;;;;;;14.82;74.59;100954.30;5184232;56;1143195;-78
2021/10/19 15:44:24;;;;;;;14.80;8.90;;;;;;;14.77;74.58;100951.54;5071288;57;1143311;-78
2021/10/19 15:49:30;;;;;;;17.77;9.73;;;;;;;14.74;74.76;100944.30;5068608;58;1141636;-77
2021/10/19 15:54:38;;;;;;;12.40;7.30;;;;;;;14.73;74.84;100935.47;5102621;56;1141151;-77
2021/10/19 15:59:44;;;;;;;15.23;8.17;;;;;;;14.71;74.58;100921.45;5217430;55;1139081;-76
2021/10/19 16:04:49;;;;;;;12.90;7.57;;;;;;;14.69;74.64;100915.90;5063197;56;1139119;-77
2021/10/19 16:09:55;;;;;;;13.53;6.50;;;;;;;14.65;74.66;100920.68;5057433;57;1139289;-77
2021/10/19 16:15:02;;;;;;;12.00;6.93;;;;;;;14.60;74.19;100917.57;5150579;56;1139047;-77
2021/10/19 16:20:08;;;;;;;25.00;13.93;;;;;;;14.58;74.73;100919.52;5086735;56;1139494;-78
2021/10/19 16:25:14;;;;;;;23.67;13.23;;;;;;;14.56;74.57;100916.14;5232956;55;1141533;-79
2021/10/19 16:30:20;;;;;;;34.60;22.00;;;;;;;14.56;74.47;100919.30;5106604;56;1141351;-78
2021/10/19 16:35:26;;;;;;;18.97;11.73;;;;;;;14.54;74.18;100923.91;5213561;55;1141420;-77
2021/10/19 16:40:32;;;;;;;16.93;10.73;;;;;;;14.51;74.78;100922.88;5066869;57;1141142;-77
2021/10/19 16:45:38;;;;;;;18.83;8.63;;;;;;;14.51;74.56;100925.53;5059334;57;1141124;-79
2021/10/19 16:50:44;;;;;;;10.93;6.00;;;;;;;14.47;74.47;100924.11;5063783;57;1139144;-79
2021/10/19 16:55:49;;;;;;;8.17;5.37;;;;;;;14.42;74.38;100927.16;5187180;56;1139367;-79
2021/10/19 17:00:56;;;;;;;10.70;7.57;;;;;;;14.42;74.38;100927.16;5186308;55;1137321;-79
2021/10/19 17:06:03;;;;;;;23.07;15.50;;;;;;;14.40;74.38;100935.76;5090780;57;1139355;-79
2021/10/19 17:11:10;;;;;;;12.60;7.37;;;;;;;14.34;74.64;100942.45;5014502;57;1141197;-78
2021/10/19 17:16:17;;;;;;;15.70;7.17;;;;;;;14.29;74.17;100942.48;5080131;57;1139026;-79
2021/10/19 17:21:22;;;;;;;16.62;8.50;;;;;;;14.23;74.76;100942.99;5105323;56;1139081;-79
2021/10/19 17:26:28;;;;;;;11.53;6.37;;;;;;;14.20;74.88;100938.81;5214212;55;1139455;-78
2021/10/19 17:31:35;;;;;;;10.57;7.20;;;;;;;14.18;74.60;100933.26;5056263;57;1137288;-78
2021/10/19 17:36:41;;;;;;;11.27;6.23;;;;;;;14.16;74.43;100937.86;5063950;57;1136876;-78
2021/10/19 17:41:47;;;;;;;12.80;7.17;;;;;;;14.12;75.02;100937.27;5050548;57;1141154;-78
2021/10/19 17:46:53;;;;;;;10.10;6.07;;;;;;;14.12;75.16;100925.79;5261834;55;1141137;-78
2021/10/19 17:51:59;;;;;;;13.33;7.33;;;;;;;14.12;75.03;100928.45;5146192;56;1141068;-79
2021/10/19 17:57:05;;;;;;;7.50;5.60;;;;;;;14.11;75.20;100920.11;5232586;56;1141129;-79
2021/10/19 18:02:12;;;;;;;12.13;6.60;;;;;;;14.09;75.11;100917.09;5112216;56;1139266;-79
2021/10/19 18:07:20;;;;;;;15.40;7.70;;;;;;;14.07;75.25;100911.55;5044102;57;1141183;-78
2021/10/19 18:12:27;;;;;;;16.67;8.20;;;;;;;14.07;75.08;100905.74;5085674;57;1141196;-78
2021/10/19 18:17:33;;;;;;;25.60;12.03;;;;;;;14.07;75.08;100895.10;5156404;56;1141266;-78
2021/10/19 18:22:46;;;;;;;25.03;9.63;;;;;;;14.07;74.60;100883.63;5108348;56;1143225;-77
2021/10/19 18:27:50;;;;;;;13.17;6.93;;;;;;;14.07;74.89;100878.30;5203560;56;1141156;-77
2021/10/19 18:32:56;;;;;;;15.80;7.60;;;;;;;14.04;74.51;100872.78;5117232;56;1141362;-77
2021/10/19 18:38:01;;;;;;;10.07;6.83;;;;;;;14.06;74.62;100864.64;5073656;57;1141119;-77
2021/10/19 18:43:09;;;;;;;15.83;8.27;;;;;;;14.07;74.41;100858.36;5085938;57;1141251;-79
2021/10/19 18:48:16;;;;;;;11.63;7.80;;;;;;;14.10;74.35;100858.09;5042907;57;1141206;-81
2021/10/19 18:53:22;;;;;;;11.90;5.90;;;;;;;14.08;74.48;100855.56;5071421;56;1141266;-79
2021/10/19 18:58:28;;;;;;;13.47;9.20;;;;;;;14.04;73.83;100854.17;5121279;57;1141395;-80
2021/10/19 19:03:34;;;;;;;16.90;9.80;;;;;;;14.02;74.42;100843.30;5153959;56;1141407;-80
2021/10/19 19:08:40;;;;;;;11.87;6.93;;;;;;;14.00;74.45;100851.90;5074422;57;1141126;-80
2021/10/19 19:13:52;;;;;;;13.50;8.00;;;;;;;13.99;74.32;100840.42;5109426;56;1141165;-79
2021/10/19 19:18:53;;;;;;;19.13;10.63;;;;;;;13.97;74.72;100832.22;5242830;56;1141242;-78
2021/10/19 19:23:58;;;;;;;17.37;8.60;;;;;;;13.92;74.72;100837.08;5127391;56;1143249;-79
2021/10/19 19:29:06;;;;;;;12.97;7.57;;;;;;;13.87;74.90;100831.34;5246862;55;1141189;-78
2021/10/19 19:34:12;;;;;;;18.12;9.68;;;;;;;13.83;75.12;100823.26;5101602;56;1141249;-81
2021/10/19 19:39:18;;;;;;;16.90;9.57;;;;;;;13.82;75.18;100813.60;5237636;56;1141107;-79
2021/10/19 19:44:23;;;;;;;15.27;8.60;;;;;;;13.78;75.54;100793.08;5149029;56;1141080;-78
2021/10/19 19:49:29;;;;;;;24.03;13.27;;;;;;;13.76;75.66;100794.17;5110417;57;1141104;-80
2021/10/19 19:54:35;;;;;;;19.53;8.50;;;;;;;13.68;75.73;100777.58;5116204;56;1143207;-80
2021/10/19 19:59:41;;;;;;;18.10;9.43;;;;;;;13.70;75.75;100788.92;5184653;56;1141135;-80
2021/10/19 20:04:46;;;;;;;17.33;10.47;;;;;;;13.69;76.16;100785.42;5135195;56;1141457;-79
2021/10/19 20:09:52;;;;;;;19.10;10.43;;;;;;;13.67;76.25;100780.72;5212730;56;1143446;-78
2021/10/19 20:14:58;;;;;;;26.30;10.13;;;;;;;13.66;76.32;100768.41;5120339;56;1143302;-80
2021/10/19 20:20:07;;;;;;;15.18;8.88;;;;;;;13.63;76.59;100762.50;5162095;56;1143491;-80
2021/10/19 20:25:14;;;;;;;14.57;8.20;;;;;;;13.62;76.75;100751.03;5150755;56;1141104;-79
2021/10/19 20:30:21;;;;;;;18.87;11.43;;;;;;;13.59;77.07;100748.66;5243766;55;1141105;-80
2021/10/19 20:35:30;;;;;;;23.83;15.30;;;;;;;13.56;77.28;100754.23;5113090;56;1143593;-79
2021/10/19 20:40:38;;;;;;;32.07;19.57;;;;;;;13.59;77.46;100743.35;5186815;56;1143241;-79
2021/10/19 20:45:44;;;;;;;17.73;13.27;;;;;;;13.58;77.74;100742.15;5100670;56;1141179;-78
2021/10/19 20:50:50;;;;;;;24.80;10.77;;;;;;;13.59;77.94;100753.14;5215963;56;1141342;-79
2021/10/19 20:55:56;;;;;;;16.90;9.83;;;;;;;13.58;78.07;100748.31;5120650;56;1141376;-79
2021/10/19 21:01:03;;;;;;;20.90;10.53;;;;;;;13.57;78.32;100738.65;5207256;56;1139261;-79
2021/10/19 21:06:09;;;;;;;17.07;9.87;;;;;;;13.59;78.42;100749.16;5104631;56;1141237;-79
2021/10/19 21:11:15;;;;;;;19.57;8.43;;;;;;;13.59;78.62;100735.37;5111770;57;1139322;-79
2021/10/19 21:16:21;;;;;;;14.50;9.03;;;;;;;13.58;78.83;100731.03;5121488;56;1139089;-79
2021/10/19 21:21:26;;;;;;;13.33;7.93;;;;;;;13.58;78.95;100739.49;5106288;57;1139268;-80
2021/10/19 21:26:32;;;;;;;15.53;9.67;;;;;;;13.56;79.27;100723.67;5082107;56;1139291;-80
2021/10/19 21:31:38;;;;;;;10.80;7.50;;;;;;;13.57;79.35;100716.55;5243196;55;1139304;-79
2021/10/19 21:36:43;;;;;;;13.40;7.90;;;;;;;13.56;79.63;100720.17;5253495;55;1139015;-79
2021/10/19 21:41:49;;;;;;;13.73;8.70;;;;;;;13.58;79.76;100695.64;5126286;56;1139021;-80
2021/10/19 21:46:56;;;;;;;17.57;9.23;;;;;;;13.58;79.95;100682.36;5214763;55;1139307;-78
2021/10/19 21:52:03;;;;;;;18.80;9.73;;;;;;;13.60;80.13;100692.34;5234124;55;1139180;-79
2021/10/19 21:57:09;;;;;;;18.07;9.67;;;;;;;13.64;80.31;100696.42;5119297;56;1139093;-79
2021/10/19 22:02:15;;;;;;;14.30;8.80;;;;;;;13.60;80.58;100689.19;5122827;57;1139335;-79
2021/10/19 22:07:20;;;;;;;15.57;8.03;;;;;;;13.63;80.78;100669.48;5100117;56;1139105;-79
2021/10/19 22:12:26;;;;;;;12.97;7.97;;;;;;;13.63;80.95;100654.37;5219484;56;1139057;-78
2021/10/19 22:17:33;;;;;;;12.47;8.63;;;;;;;13.64;81.00;100641.45;5157278;56;1137253;-79
2021/10/19 22:22:39;;;;;;;13.07;7.20;;;;;;;13.66;80.86;100626.21;5135684;57;1137040;-80
2021/10/19 22:27:45;;;;;;;12.80;7.67;;;;;;;13.67;80.87;100621.25;5123140;56;1142200;-79
2021/10/19 22:32:51;;;;;;;10.05;6.80;;;;;;;13.71;80.77;100616.51;5058675;57;1141588;-78
2021/10/19 22:37:57;;;;;;;13.17;8.37;;;;;;;13.68;81.01;100616.77;5150559;56;1141201;-79
2021/10/19 22:43:05;;;;;;;14.98;8.38;;;;;;;13.68;81.16;100616.28;5062651;57;1141054;-78
2021/10/19 22:48:12;;;;;;;14.97;7.07;;;;;;;13.70;81.24;100605.03;5050366;58;1141069;-79
2021/10/19 22:53:18;;;;;;;10.57;6.87;;;;;;;13.71;81.62;100609.86;5206156;56;1141313;-79